Time;durP1;ratioP1;P1;durP2;ratioP2;P2;SDS_P1;SDS_P2;PMS_P1;PMS_P2;Temp;Humidity;BMP_temperature;BMP_pressure;BME280_temperature;BME280_humidity;BME280_pressure;Samples;Min_cycle;Max_cycle;Signal;HPM_P1;HPM_P2
2022/10/27 00:31:25;;;;;;;24.85;8.93;;;15.50;99.90;;;;;;5420022;22;20138;-72
2022/10/27 00:33:51;;;;;;;24.33;7.90;;;15.50;99.90;;;;;;5109280;28;20403;-72
2022/10/27 00:36:19;;;;;;;16.48;7.72;;;15.40;99.90;;;;;;5128823;27;20035;-72
2022/10/27 00:38:45;;;;;;;16.50;8.23;;;15.40;99.90;;;;;;5140128;27;20379;-72
2022/10/27 00:41:26;;;;;;;17.90;7.40;;;15.50;99.90;;;;;;5138780;27;20071;-72
2022/10/27 00:43:52;;;;;;;24.50;8.55;;;15.50;99.90;;;;;;5120636;27;20324;-73
2022/10/27 00:46:27;;;;;;;13.75;7.20;;;15.60;99.90;;;;;;5138892;27;20357;-72
2022/10/27 00:49:02;;;;;;;25.70;9.52;;;15.60;99.90;;;;;;5139060;27;20122;-72
2022/10/27 00:51:28;;;;;;;19.95;9.95;;;15.60;99.90;;;;;;5138693;27;20039;-72
2022/10/27 00:53:55;;;;;;;24.85;10.95;;;15.60;99.90;;;;;;5138735;27;20058;-71
2022/10/27 00:56:22;;;;;;;14.43;7.45;;;15.50;99.90;;;;;;5138899;27;20039;-71
2022/10/27 00:58:48;;;;;;;23.23;8.18;;;15.50;99.90;;;;;;5138407;27;20042;-72
2022/10/27 01:01:14;;;;;;;16.33;7.75;;;15.50;99.90;;;;;;5138424;27;20043;-73
2022/10/27 01:03:40;;;;;;;20.20;9.68;;;15.40;99.90;;;;;;5138355;27;20050;-72
2022/10/27 01:06:08;;;;;;;22.17;10.02;;;15.40;99.90;;;;;;5138350;27;20039;-72
2022/10/27 01:08:34;;;;;;;28.27;10.57;;;15.40;99.90;;;;;;5138568;27;20110;-72
2022/10/27 01:11:00;;;;;;;22.73;11.77;;;15.50;99.90;;;;;;5103588;27;20100;-72
2022/10/27 01:13:26;;;;;;;29.05;11.68;;;15.40;99.90;;;;;;5120425;27;20043;-72
2022/10/27 01:16:33;;;;;;;26.70;11.70;;;15.40;99.90;;;;;;5138070;27;20039;-71
2022/10/27 01:19:17;;;;;;;32.42;11.63;;;15.40;99.90;;;;;;5138322;27;20038;-72
2022/10/27 01:22:14;;;;;;;17.73;9.30;;;15.40;99.90;;;;;;5119933;27;20432;-72
2022/10/27 01:24:41;;;;;;;27.70;11.65;;;15.40;99.90;;;;;;5138242;27;20385;-71
2022/10/27 01:27:45;;;;;;;29.10;12.50;;;15.50;99.90;;;;;;5138285;27;20289;-72
2022/10/27 01:30:13;;;;;;;25.13;10.00;;;15.40;99.90;;;;;;5138172;27;20447;-71
2022/10/27 01:32:54;;;;;;;21.77;10.68;;;15.50;99.90;;;;;;5119193;27;20051;-72
2022/10/27 01:35:47;;;;;;;21.33;11.15;;;15.50;99.90;;;;;;5138218;27;20330;-71
2022/10/27 01:38:32;;;;;;;22.65;10.50;;;15.60;99.90;;;;;;5137919;27;20039;-71
2022/10/27 01:41:25;;;;;;;24.27;9.95;;;15.50;99.90;;;;;;5137852;27;20039;-72
2022/10/27 01:43:54;;;;;;;21.92;9.60;;;15.50;99.90;;;;;;5137924;27;20392;-72
2022/10/27 01:46:20;;;;;;;21.45;10.70;;;15.50;99.90;;;;;;5137770;27;20039;-72
2022/10/27 01:48:46;;;;;;;16.75;8.88;;;15.50;99.90;;;;;;5138118;27;20031;-72
2022/10/27 01:51:13;;;;;;;25.40;9.82;;;15.50;99.90;;;;;;5137670;27;20309;-71
2022/10/27 01:53:43;;;;;;;23.05;11.82;;;15.60;99.90;;;;;;5137512;27;20074;-71
2022/10/27 01:56:27;;;;;;;23.90;10.50;;;15.60;99.90;;;;;;5137672;27;20046;-72
2022/10/27 01:59:20;;;;;;;25.25;10.88;;;15.60;99.90;;;;;;5137645;27;20050;-72
2022/10/27 02:02:12;;;;;;;28.98;12.32;;;15.60;99.90;;;;;;5137230;27;20126;-71
2022/10/27 02:05:11;;;;;;;15.77;9.00;;;15.70;99.90;;;;;;5137844;27;20797;-72
2022/10/27 02:07:52;;;;;;;15.95;9.45;;;15.60;99.90;;;;;;5137585;27;20118;-71
2022/10/27 02:10:28;;;;;;;24.55;10.80;;;15.60;99.90;;;;;;5137908;27;20328;-71
2022/10/27 02:12:55;;;;;;;24.23;10.65;;;15.60;99.90;;;;;;5144163;27;20035;-71
2022/10/27 02:15:32;;;;;;;21.38;9.45;;;15.70;99.90;;;;;;5144387;27;20115;-72
2022/10/27 02:18:05;;;;;;;20.98;9.05;;;15.70;99.90;;;;;;5144412;27;20434;-72
2022/10/27 02:20:39;;;;;;;19.70;10.57;;;15.70;99.90;;;;;;5144087;27;20428;-72
2022/10/27 02:23:07;;;;;;;20.33;10.25;;;15.80;99.90;;;;;;5144100;27;20420;-72
2022/10/27 02:25:56;;;;;;;16.45;8.80;;;15.80;99.90;;;;;;5144169;27;20034;-72
2022/10/27 02:28:27;;;;;;;22.88;10.43;;;15.70;99.90;;;;;;5144107;27;20031;-72
2022/10/27 02:30:57;;;;;;;25.08;9.23;;;15.70;99.90;;;;;;5126173;27;20039;-72
2022/10/27 02:33:23;;;;;;;21.17;11.00;;;15.60;99.90;;;;;;5144477;27;20344;-72
2022/10/27 02:35:50;;;;;;;19.10;8.45;;;15.60;99.90;;;;;;5144312;27;20035;-71
2022/10/27 02:38:16;;;;;;;22.80;9.32;;;15.50;99.90;;;;;;5144229;27;20050;-72
2022/10/27 02:40:41;;;;;;;29.77;12.15;;;15.50;99.90;;;;;;5144194;27;20031;-72
2022/10/27 02:43:07;;;;;;;17.38;9.18;;;15.60;99.90;;;;;;5144107;27;20098;-72
2022/10/27 02:45:33;;;;;;;23.88;9.90;;;15.60;99.90;;;;;;5126118;27;20130;-72
2022/10/27 02:47:58;;;;;;;14.93;8.77;;;15.60;99.90;;;;;;5144290;27;20442;-71
2022/10/27 02:50:24;;;;;;;16.98;9.43;;;15.70;99.90;;;;;;5144055;27;20513;-72
2022/10/27 02:52:50;;;;;;;16.95;9.80;;;15.70;99.90;;;;;;5144189;27;20140;-72
2022/10/27 02:55:15;;;;;;;18.98;9.02;;;15.70;99.90;;;;;;5144127;27;20050;-71
2022/10/27 02:57:41;;;;;;;17.10;8.65;;;15.70;99.90;;;;;;5144200;27;20041;-71
2022/10/27 03:00:07;;;;;;;20.70;10.20;;;15.70;99.90;;;;;;5143887;27;20067;-71
2022/10/27 03:02:33;;;;;;;17.10;8.77;;;15.60;99.90;;;;;;5143548;27;20045;-71
2022/10/27 03:04:58;;;;;;;17.25;8.63;;;15.60;99.90;;;;;;5143696;27;20039;-72
2022/10/27 03:07:24;;;;;;;19.17;8.73;;;15.60;99.90;;;;;;5144263;27;20035;-72
2022/10/27 03:09:50;;;;;;;12.63;8.05;;;15.60;99.90;;;;;;5143945;27;20451;-72
2022/10/27 03:12:15;;;;;;;23.88;9.77;;;15.50;99.90;;;;;;5143932;27;20372;-71
2022/10/27 03:14:41;;;;;;;26.63;9.23;;;15.40;99.90;;;;;;5125931;27;20095;-72
2022/10/27 03:17:07;;;;;;;19.10;9.85;;;15.30;99.90;;;;;;5143842;27;20039;-72
2022/10/27 03:19:32;;;;;;;19.13;10.55;;;15.30;99.90;;;;;;5143923;27;20301;-72
2022/10/27 03:21:58;;;;;;;18.50;9.98;;;15.40;99.90;;;;;;5143217;27;20039;-72
2022/10/27 03:24:23;;;;;;;21.65;9.20;;;15.30;99.90;;;;;;5140605;27;20062;-71
2022/10/27 03:26:49;;;;;;;22.58;11.45;;;15.30;99.90;;;;;;5140298;27;20035;-72
2022/10/27 03:29:14;;;;;;;19.55;10.27;;;15.40;99.90;;;;;;5140341;27;20031;-72
2022/10/27 03:31:40;;;;;;;12.93;8.35;;;15.30;99.90;;;;;;5139833;27;20062;-71
2022/10/27 03:34:06;;;;;;;22.23;9.55;;;15.40;99.90;;;;;;5140120;27;20051;-72
2022/10/27 03:36:32;;;;;;;18.38;9.73;;;15.30;99.90;;;;;;5140438;27;20144;-72
2022/10/27 03:38:58;;;;;;;16.55;10.10;;;15.30;99.90;;;;;;5140363;27;20035;-72
2022/10/27 03:41:24;;;;;;;26.42;13.50;;;15.30;99.90;;;;;;5140338;27;20046;-71
2022/10/27 03:43:49;;;;;;;26.52;12.68;;;15.20;99.90;;;;;;5140030;27;20042;-72
2022/10/27 03:46:15;;;;;;;19.63;10.18;;;15.30;99.90;;;;;;5122270;27;20365;-72
2022/10/27 03:48:41;;;;;;;24.77;11.60;;;15.30;99.90;;;;;;5140116;27;20118;-72
2022/10/27 03:51:07;;;;;;;22.88;11.57;;;15.30;99.90;;;;;;5121914;27;20039;-72
2022/10/27 03:53:33;;;;;;;20.10;10.25;;;15.30;99.90;;;;;;5140149;27;20049;-72
2022/10/27 03:55:59;;;;;;;22.02;11.93;;;15.30;99.90;;;;;;5139930;27;20043;-72
2022/10/27 03:58:24;;;;;;;19.98;11.93;;;15.20;99.90;;;;;;5140085;27;20035;-72
2022/10/27 04:00:50;;;;;;;25.65;11.35;;;15.20;99.90;;;;;;5139389;27;20342;-72
2022/10/27 04:03:16;;;;;;;19.70;11.88;;;15.10;99.90;;;;;;5139521;27;20051;-72
2022/10/27 04:05:41;;;;;;;30.52;15.27;;;15.10;99.90;;;;;;5140312;27;20324;-72
2022/10/27 04:08:07;;;;;;;28.95;15.57;;;15.20;99.90;;;;;;5139716;27;20031;-77
2022/10/27 04:10:33;;;;;;;20.92;12.27;;;15.20;99.90;;;;;;5139340;27;20039;-71
2022/10/27 04:12:59;;;;;;;29.85;14.32;;;15.20;99.90;;;;;;5139496;27;20031;-72
2022/10/27 04:15:26;;;;;;;17.58;10.43;;;15.10;99.90;;;;;;5139298;27;20043;-72
2022/10/27 04:17:57;;;;;;;24.08;14.40;;;15.20;99.90;;;;;;5139160;27;20045;-72
2022/10/27 04:20:24;;;;;;;26.00;11.98;;;15.20;99.90;;;;;;5139437;27;20412;-71
2022/10/27 04:22:49;;;;;;;28.25;13.60;;;15.20;99.90;;;;;;5121267;27;20083;-72
2022/10/27 04:25:15;;;;;;;25.55;12.77;;;15.20;99.90;;;;;;5139689;27;20311;-72
2022/10/27 04:27:41;;;;;;;19.58;11.35;;;15.20;99.90;;;;;;5139155;27;20039;-71
2022/10/27 04:30:07;;;;;;;22.27;11.77;;;15.10;99.90;;;;;;5139223;27;20074;-72
2022/10/27 04:32:32;;;;;;;30.00;14.80;;;15.10;99.90;;;;;;5120429;27;20070;-72
2022/10/27 04:34:58;;;;;;;36.03;14.88;;;15.20;99.90;;;;;;5138689;27;20047;-72
2022/10/27 04:37:23;;;;;;;27.17;13.80;;;15.30;99.90;;;;;;5139094;27;20108;-72
2022/10/27 04:39:49;;;;;;;18.52;11.00;;;15.20;99.90;;;;;;5138829;27;20043;-72
2022/10/27 04:42:15;;;;;;;23.33;11.70;;;15.30;99.90;;;;;;5138979;27;20042;-72
2022/10/27 04:44:40;;;;;;;35.55;15.15;;;15.30;99.90;;;;;;5138840;27;20031;-71
2022/10/27 04:47:06;;;;;;;21.27;11.50;;;15.30;99.90;;;;;;5139056;27;20114;-72
2022/10/27 04:49:32;;;;;;;30.58;15.60;;;15.30;99.90;;;;;;5138705;27;20446;-72
2022/10/27 04:51:57;;;;;;;30.48;12.60;;;15.20;99.90;;;;;;5138922;27;20047;-72
2022/10/27 04:54:23;;;;;;;28.98;13.20;;;15.20;99.90;;;;;;5138997;27;20320;-71
2022/10/27 04:56:49;;;;;;;18.77;10.73;;;15.10;99.90;;;;;;5138538;27;20039;-72
2022/10/27 04:59:15;;;;;;;23.80;11.82;;;15.20;99.90;;;;;;5138812;27;20340;-72
2022/10/27 05:01:41;;;;;;;30.23;14.48;;;15.20;99.90;;;;;;5138392;27;20031;-72
2022/10/27 05:04:06;;;;;;;20.92;12.57;;;15.20;99.90;;;;;;5103282;27;20047;-72
2022/10/27 05:06:32;;;;;;;17.50;10.52;;;15.20;99.90;;;;;;5120223;27;20146;-72
2022/10/27 05:08:58;;;;;;;19.38;10.70;;;15.20;99.90;;;;;;5138540;27;20122;-72
2022/10/27 05:11:23;;;;;;;20.65;11.05;;;15.10;99.90;;;;;;5138265;27;20046;-72
2022/10/27 05:13:50;;;;;;;24.50;11.68;;;15.20;99.90;;;;;;5138458;27;20048;-72
2022/10/27 05:16:17;;;;;;;22.02;11.60;;;15.10;99.90;;;;;;5138460;27;20046;-72
2022/10/27 05:18:42;;;;;;;23.98;13.18;;;15.10;99.90;;;;;;5138372;27;20066;-72
2022/10/27 05:21:08;;;;;;;18.90;10.43;;;15.10;99.90;;;;;;5138479;27;20045;-72
2022/10/27 05:23:34;;;;;;;19.13;11.82;;;15.10;99.90;;;;;;5138077;27;20039;-72
2022/10/27 05:25:59;;;;;;;25.00;12.38;;;15.00;99.90;;;;;;5120023;27;20411;-72
2022/10/27 05:28:25;;;;;;;16.88;11.65;;;15.00;99.90;;;;;;5137967;27;20035;-72
2022/10/27 05:30:58;;;;;;;24.80;12.63;;;14.90;99.90;;;;;;5138016;27;20039;-72
2022/10/27 05:33:25;;;;;;;28.13;13.85;;;15.00;99.90;;;;;;5138115;27;20351;-72
2022/10/27 05:35:51;;;;;;;20.20;11.45;;;15.00;99.90;;;;;;5137976;27;20043;-72
2022/10/27 05:38:17;;;;;;;20.88;11.50;;;14.90;99.90;;;;;;5119980;27;20065;-72
2022/10/27 05:40:42;;;;;;;31.70;14.13;;;14.90;99.90;;;;;;5137784;27;20088;-71
2022/10/27 05:43:08;;;;;;;23.70;13.15;;;14.80;99.90;;;;;;5119809;27;20043;-72
2022/10/27 05:45:34;;;;;;;24.02;12.27;;;14.80;99.90;;;;;;5137021;27;20041;-72
2022/10/27 05:48:06;;;;;;;19.80;11.43;;;14.80;99.90;;;;;;5119598;27;20122;-72
2022/10/27 05:50:32;;;;;;;21.85;12.95;;;14.80;99.90;;;;;;5137696;27;20038;-72
2022/10/27 05:52:58;;;;;;;25.27;13.38;;;14.80;99.90;;;;;;5137814;27;20047;-72
2022/10/27 05:55:24;;;;;;;23.15;12.45;;;14.90;99.90;;;;;;5137640;27;20038;-72
2022/10/27 05:57:59;;;;;;;27.73;13.90;;;14.90;99.90;;;;;;5137602;27;20043;-72
2022/10/27 06:00:29;;;;;;;22.05;12.80;;;15.00;99.90;;;;;;5137886;27;20039;-72
2022/10/27 06:02:56;;;;;;;22.88;14.07;;;15.10;99.90;;;;;;5137528;27;20099;-72
2022/10/27 06:05:22;;;;;;;25.92;13.95;;;15.10;99.90;;;;;;5137529;27;20066;-72
2022/10/27 06:07:47;;;;;;;25.83;14.70;;;15.10;99.90;;;;;;5137473;27;20074;-72
2022/10/27 06:10:13;;;;;;;20.90;12.73;;;15.10;99.90;;;;;;5137688;28;20046;-71
2022/10/27 06:12:39;;;;;;;25.38;13.43;;;15.10;99.90;;;;;;5137924;28;20460;-72
2022/10/27 06:15:05;;;;;;;21.75;13.98;;;15.10;99.90;;;;;;5137516;28;20035;-73
2022/10/27 06:17:31;;;;;;;27.95;15.27;;;15.10;99.90;;;;;;5137841;28;20062;-72
2022/10/27 06:19:56;;;;;;;28.55;14.45;;;15.20;99.90;;;;;;5137485;28;20043;-72
2022/10/27 06:22:22;;;;;;;25.35;13.45;;;15.20;99.90;;;;;;5137569;28;20040;-72
2022/10/27 06:24:48;;;;;;;27.40;15.30;;;15.10;99.90;;;;;;5137286;28;20088;-71
2022/10/27 06:27:13;;;;;;;19.90;13.70;;;15.00;99.90;;;;;;5137395;28;20114;-72
2022/10/27 06:29:39;;;;;;;23.60;13.50;;;15.10;99.90;;;;;;5137151;28;20070;-72
2022/10/27 06:32:04;;;;;;;23.73;14.30;;;15.00;99.90;;;;;;5136867;28;20152;-71
2022/10/27 06:34:30;;;;;;;19.00;13.20;;;15.00;99.90;;;;;;5137430;28;20043;-72
2022/10/27 06:36:56;;;;;;;21.88;12.23;;;15.00;99.90;;;;;;5119101;28;20043;-72
2022/10/27 06:39:21;;;;;;;20.40;11.85;;;15.00;99.90;;;;;;5137218;28;20156;-72
2022/10/27 06:41:47;;;;;;;28.33;12.57;;;14.90;99.90;;;;;;5137176;28;20043;-71
2022/10/27 06:44:13;;;;;;;24.08;15.05;;;14.80;99.90;;;;;;5119108;28;20035;-72
2022/10/27 06:46:38;;;;;;;27.02;14.38;;;14.90;99.90;;;;;;5137111;28;20131;-71
2022/10/27 06:49:05;;;;;;;19.13;12.63;;;14.80;99.90;;;;;;5137314;28;20173;-72
2022/10/27 06:51:31;;;;;;;21.67;12.50;;;14.90;99.90;;;;;;5137323;28;20084;-71
2022/10/27 06:53:57;;;;;;;21.88;12.02;;;14.80;99.90;;;;;;5119681;28;20050;-71
2022/10/27 06:56:22;;;;;;;24.77;14.00;;;14.70;99.90;;;;;;5137106;28;20039;-72
2022/10/27 06:58:49;;;;;;;22.33;12.45;;;14.70;99.90;;;;;;5122590;27;20051;-72
2022/10/27 07:01:14;;;;;;;22.60;12.27;;;14.70;99.90;;;;;;5140727;27;20042;-71
2022/10/27 07:03:40;;;;;;;23.63;12.20;;;14.80;99.90;;;;;;5140789;27;20057;-72
2022/10/27 07:06:06;;;;;;;19.02;11.13;;;14.70;99.90;;;;;;5140920;27;20118;-72
2022/10/27 07:08:32;;;;;;;20.25;10.60;;;14.80;99.90;;;;;;5140833;27;20111;-72
2022/10/27 07:10:58;;;;;;;18.65;11.52;;;14.80;99.90;;;;;;5140934;27;20389;-72
2022/10/27 07:13:23;;;;;;;16.85;10.88;;;14.80;99.90;;;;;;5122464;27;20122;-72
2022/10/27 07:15:49;;;;;;;21.38;11.20;;;14.80;99.90;;;;;;5122576;27;20066;-71
2022/10/27 07:18:15;;;;;;;24.85;12.05;;;14.80;99.90;;;;;;5140873;27;20366;-72
2022/10/27 07:20:43;;;;;;;25.05;12.40;;;15.00;99.90;;;;;;5140662;27;20484;-71
2022/10/27 07:23:09;;;;;;;23.08;11.43;;;15.10;99.90;;;;;;5140330;27;20053;-72
2022/10/27 07:25:35;;;;;;;20.25;10.20;;;15.10;99.90;;;;;;5140512;27;20027;-69
2022/10/27 07:28:03;;;;;;;19.92;10.88;;;15.10;99.90;;;;;;5140329;27;20062;-68
2022/10/27 07:30:37;;;;;;;21.95;9.38;;;15.20;99.90;;;;;;5122589;27;20043;-69
2022/10/27 07:33:03;;;;;;;14.98;9.38;;;15.20;99.90;;;;;;5139746;27;20134;-71
2022/10/27 07:35:30;;;;;;;20.15;9.52;;;15.20;99.90;;;;;;5140275;27;20035;-71
2022/10/27 07:37:56;;;;;;;20.38;8.88;;;15.30;99.90;;;;;;5122376;27;20420;-69
2022/10/27 07:40:22;;;;;;;15.10;8.57;;;15.40;99.90;;;;;;5122105;27;20068;-69
2022/10/27 07:42:51;;;;;;;17.20;8.30;;;15.40;99.90;;;;;;5122009;27;20035;-69
2022/10/27 07:45:19;;;;;;;17.88;8.77;;;15.50;99.90;;;;;;5140287;27;20042;-69
2022/10/27 07:47:53;;;;;;;19.30;9.25;;;15.50;99.90;;;;;;5140273;27;20035;-69
2022/10/27 07:50:21;;;;;;;15.70;8.15;;;15.60;99.90;;;;;;5140069;27;20043;-69
2022/10/27 07:52:49;;;;;;;13.27;7.30;;;15.70;99.90;;;;;;5140013;27;20479;-69
2022/10/27 07:55:16;;;;;;;23.75;8.10;;;15.70;99.90;;;;;;5140017;27;20088;-69
2022/10/27 07:57:43;;;;;;;19.15;9.00;;;15.70;99.90;;;;;;5121580;27;20043;-69
2022/10/27 08:00:14;;;;;;;16.17;7.97;;;15.80;99.90;;;;;;5139724;27;20420;-70
2022/10/27 08:02:41;;;;;;;16.67;7.65;;;15.90;99.90;;;;;;5139269;27;20084;-69
2022/10/27 08:05:08;;;;;;;13.98;7.13;;;16.00;99.90;;;;;;5139896;27;20046;-69
2022/10/27 08:07:34;;;;;;;16.65;7.22;;;16.00;99.90;;;;;;5139756;27;20039;-69
2022/10/27 08:10:00;;;;;;;15.00;7.13;;;16.10;99.90;;;;;;5138915;27;20074;-69
2022/10/27 08:12:26;;;;;;;17.45;6.43;;;16.10;99.90;;;;;;5121328;27;20052;-69
2022/10/27 08:14:52;;;;;;;16.27;6.85;;;16.20;99.90;;;;;;5139528;27;20061;-69
2022/10/27 08:17:18;;;;;;;15.15;6.65;;;16.20;99.90;;;;;;5121197;27;20408;-69
2022/10/27 08:19:44;;;;;;;10.90;6.70;;;16.30;99.90;;;;;;5139276;27;20042;-70
2022/10/27 08:22:09;;;;;;;11.38;6.43;;;16.40;99.90;;;;;;5121185;27;20440;-69
2022/10/27 08:24:35;;;;;;;20.10;7.32;;;16.40;99.90;;;;;;5139653;27;20039;-69
2022/10/27 08:27:01;;;;;;;16.98;6.72;;;16.50;99.90;;;;;;5139252;27;20081;-69
2022/10/27 08:29:26;;;;;;;16.45;6.43;;;16.60;99.90;;;;;;5120869;27;20035;-69
2022/10/27 08:31:53;;;;;;;19.70;6.07;;;16.60;99.90;;;;;;5138673;27;20058;-69
2022/10/27 08:34:19;;;;;;;15.50;6.00;;;16.60;99.90;;;;;;5139041;27;20047;-69
2022/10/27 08:36:44;;;;;;;12.88;5.75;;;16.70;99.90;;;;;;5139075;27;20042;-69
2022/10/27 08:39:11;;;;;;;12.73;5.70;;;16.70;99.90;;;;;;5138968;27;20050;-69
2022/10/27 08:41:37;;;;;;;16.10;5.90;;;16.70;99.90;;;;;;5121114;27;20043;-69
2022/10/27 08:44:32;;;;;;;9.63;5.10;;;16.60;99.90;;;;;;5120553;27;20064;-69
2022/10/27 08:47:03;;;;;;;11.45;5.03;;;16.70;99.90;;;;;;5138934;27;20050;-70
2022/10/27 08:49:35;;;;;;;13.15;5.35;;;16.80;99.90;;;;;;5138952;27;20035;-69
2022/10/27 08:52:10;;;;;;;11.88;5.35;;;16.80;99.90;;;;;;5138612;27;20428;-69
2022/10/27 08:54:36;;;;;;;10.57;4.68;;;16.80;99.90;;;;;;5120431;27;20110;-72
2022/10/27 08:57:03;;;;;;;12.05;5.10;;;16.80;99.90;;;;;;5138461;27;20074;-69
2022/10/27 08:59:30;;;;;;;11.90;5.18;;;16.80;99.90;;;;;;5138625;27;20138;-69
2022/10/27 09:02:21;;;;;;;10.40;4.63;;;16.90;99.90;;;;;;5138330;27;20047;-69
2022/10/27 09:04:57;;;;;;;15.10;5.20;;;16.90;99.90;;;;;;5120199;27;20114;-70
2022/10/27 09:07:36;;;;;;;14.43;4.82;;;17.00;99.90;;;;;;5138660;27;20054;-70
2022/10/27 09:10:11;;;;;;;9.48;4.40;;;17.10;99.90;;;;;;5120419;27;20348;-70
2022/10/27 09:12:42;;;;;;;13.50;4.70;;;17.30;99.90;;;;;;5138394;27;20043;-70
2022/10/27 09:15:23;;;;;;;11.98;4.72;;;17.30;99.90;;;;;;5120134;27;20165;-70
2022/10/27 09:17:49;;;;;;;9.13;4.60;;;17.50;99.90;;;;;;5137979;27;20074;-70
2022/10/27 09:20:17;;;;;;;9.57;4.00;;;17.50;99.90;;;;;;5138265;27;20046;-70
2022/10/27 09:22:43;;;;;;;10.43;4.03;;;17.60;99.90;;;;;;5137875;27;20444;-70
2022/10/27 09:25:17;;;;;;;11.70;4.30;;;17.70;99.90;;;;;;5138287;27;20031;-75
2022/10/27 09:27:46;;;;;;;8.85;4.43;;;17.60;99.90;;;;;;5138038;27;20035;-70
2022/10/27 09:30:13;;;;;;;10.85;4.40;;;17.60;99.90;;;;;;5138253;27;20319;-69
2022/10/27 09:32:46;;;;;;;9.32;4.00;;;17.60;99.90;;;;;;5137295;27;20066;-80
2022/10/27 09:35:15;;;;;;;11.20;4.25;;;17.50;99.90;;;;;;5102942;27;20082;-81
2022/10/27 09:37:41;;;;;;;14.48;4.22;;;17.50;99.90;;;;;;5138477;27;20074;-69
2022/10/27 09:40:21;;;;;;;7.82;4.43;;;17.50;99.90;;;;;;5137715;27;20124;-69
2022/10/27 09:42:53;;;;;;;6.82;4.07;;;17.70;99.90;;;;;;5137805;27;20378;-69
2022/10/27 09:45:24;;;;;;;13.73;4.07;;;18.00;99.90;;;;;;5137930;27;20099;-71
2022/10/27 09:47:55;;;;;;;11.13;4.30;;;18.10;99.90;;;;;;5137500;27;20046;-69
2022/10/27 09:50:22;;;;;;;8.07;3.58;;;18.10;99.90;;;;;;5120009;27;20027;-69
2022/10/27 09:52:48;;;;;;;19.17;3.85;;;18.00;99.90;;;;;;5119429;27;20435;-69
2022/10/27 09:55:15;;;;;;;11.27;4.72;;;18.20;99.90;;;;;;5137765;27;20071;-68
2022/10/27 09:57:45;;;;;;;11.05;3.90;;;18.30;99.90;;;;;;5137354;27;20319;-69
2022/10/27 10:00:20;;;;;;;19.08;4.00;;;18.30;99.90;;;;;;5137526;27;20050;-69
2022/10/27 10:03:18;;;;;;;11.70;4.40;;;18.30;99.90;;;;;;5137193;27;20066;-69
2022/10/27 10:05:46;;;;;;;10.13;4.55;;;18.50;99.90;;;;;;5119158;28;20092;-80
2022/10/27 10:08:18;;;;;;;9.98;3.33;;;18.40;99.90;;;;;;5119105;28;20436;-69
2022/10/27 10:11:03;;;;;;;7.68;3.28;;;18.20;99.90;;;;;;5137304;28;20031;-69
2022/10/27 10:13:31;;;;;;;8.65;3.25;;;18.30;99.90;;;;;;5136052;28;20468;-70
2022/10/27 10:16:13;;;;;;;8.95;3.20;;;18.40;99.90;;;;;;5136795;28;20078;-68
2022/10/27 10:18:42;;;;;;;5.93;2.70;;;18.50;99.90;;;;;;5137387;28;20110;-70
2022/10/27 10:21:10;;;;;;;6.32;2.70;;;18.60;99.90;;;;;;5137414;28;20078;-68
2022/10/27 10:23:56;;;;;;;8.95;2.47;;;18.70;99.90;;;;;;5137336;28;20086;-69
2022/10/27 10:26:24;;;;;;;5.70;2.08;;;18.80;99.90;;;;;;5137469;28;20050;-68
2022/10/27 10:28:53;;;;;;;8.30;2.60;;;19.00;99.90;;;;;;5137200;28;20035;-70
2022/10/27 10:31:27;;;;;;;5.28;2.33;;;19.10;99.90;;;;;;5136688;27;20108;-69
2022/10/27 10:34:07;;;;;;;3.97;1.58;;;19.10;99.90;;;;;;5141201;27;20047;-69
2022/10/27 10:36:38;;;;;;;6.80;1.70;;;19.20;99.90;;;;;;5123242;27;20039;-69
2022/10/27 10:39:28;;;;;;;7.35;2.42;;;19.10;99.90;;;;;;5141387;27;20051;-69
2022/10/27 10:42:09;;;;;;;6.90;2.08;;;19.30;99.90;;;;;;5106126;27;20047;-69
2022/10/27 10:44:35;;;;;;;5.32;1.75;;;19.40;99.90;;;;;;5141180;27;20081;-69
2022/10/27 10:47:01;;;;;;;4.45;1.55;;;19.30;99.90;;;;;;5123271;27;20050;-70
2022/10/27 10:49:36;;;;;;;8.65;1.80;;;19.40;99.90;;;;;;5141076;27;20039;-81
2022/10/27 10:52:16;;;;;;;3.90;1.80;;;19.60;99.90;;;;;;5122866;27;20484;-74
2022/10/27 10:54:45;;;;;;;7.45;1.60;;;19.30;99.90;;;;;;5122923;27;20042;-78
2022/10/27 10:57:35;;;;;;;7.68;2.05;;;19.20;99.90;;;;;;5106376;27;20393;-79
2022/10/27 11:00:05;;;;;;;7.32;1.92;;;19.10;99.90;;;;;;5123241;27;20050;-79
2022/10/27 11:02:32;;;;;;;3.70;1.40;;;19.10;99.90;;;;;;5122204;27;20039;-78
2022/10/27 11:05:20;;;;;;;3.85;1.40;;;19.20;99.90;;;;;;5122525;27;20049;-79
2022/10/27 11:07:47;;;;;;;6.60;1.35;;;19.20;99.90;;;;;;5122854;27;20042;-78
2022/10/27 11:10:27;;;;;;;5.78;1.40;;;19.20;99.90;;;;;;5140709;27;20046;-79
2022/10/27 11:13:02;;;;;;;3.28;1.23;;;19.30;99.90;;;;;;5122572;27;20043;-78
2022/10/27 11:15:59;;;;;;;9.32;1.50;;;19.40;99.90;;;;;;5122524;27;20109;-82
2022/10/27 11:19:00;;;;;;;8.73;1.45;;;19.60;99.90;;;;;;5140616;27;20043;-81
2022/10/27 11:21:40;;;;;;;4.53;1.20;;;19.60;99.90;;;;;;5122350;27;20118;-81
2022/10/27 11:24:15;;;;;;;4.40;1.23;;;19.60;99.90;;;;;;5140462;27;20039;-81
2022/10/27 11:26:53;;;;;;;4.80;1.10;;;19.80;99.90;;;;;;5122064;27;20039;-79
2022/10/27 11:29:26;;;;;;;6.65;1.58;;;19.90;99.90;;;;;;5122096;27;20039;-69
2022/10/27 11:32:01;;;;;;;3.17;1.00;;;20.00;99.90;;;;;;5139623;27;20340;-68
2022/10/27 11:35:00;;;;;;;5.68;1.27;;;20.40;99.80;;;;;;5140522;27;20112;-69
2022/10/27 11:37:56;;;;;;;7.53;1.40;;;20.70;99.60;;;;;;5115549;27;20051;-69
2022/10/27 11:40:32;;;;;;;3.73;1.53;;;20.80;99.40;;;;;;5140309;27;20078;-69
2022/10/27 11:43:09;;;;;;;4.82;1.17;;;20.80;99.70;;;;;;5140059;27;20464;-68
2022/10/27 11:45:42;;;;;;;6.75;1.50;;;20.90;99.60;;;;;;5139437;27;20108;-78
2022/10/27 11:48:28;;;;;;;4.57;1.20;;;20.90;99.80;;;;;;5121631;27;20046;-71
2022/10/27 11:51:06;;;;;;;4.60;1.27;;;20.50;99.50;;;;;;5137294;27;20043;-71
2022/10/27 11:53:32;;;;;;;5.60;1.10;;;20.60;99.80;;;;;;5110790;27;20051;-71
2022/10/27 11:56:19;;;;;;;3.35;1.20;;;20.90;99.90;;;;;;5121573;27;20084;-71
2022/10/27 11:59:05;;;;;;;6.70;1.38;;;21.10;99.40;;;;;;5105604;27;20043;-71
2022/10/27 12:01:51;;;;;;;5.28;1.50;;;21.70;99.60;;;;;;5138967;27;20046;-71
2022/10/27 12:04:31;;;;;;;5.43;1.00;;;22.10;99.40;;;;;;5110122;28;20433;-71
2022/10/27 12:07:42;;;;;;;6.97;1.23;;;22.20;98.60;;;;;;5118026;28;20046;-71
2022/10/27 12:10:49;;;;;;;3.53;1.20;;;22.10;98.60;;;;;;5100459;28;20444;-71
2022/10/27 12:13:49;;;;;;;6.45;1.35;;;22.10;98.20;;;;;;5118937;28;20043;-71
2022/10/27 12:16:30;;;;;;;5.57;1.30;;;21.90;98.50;;;;;;5118900;28;20040;-70
2022/10/27 12:19:09;;;;;;;6.40;1.17;;;22.00;98.70;;;;;;5119044;28;20043;-71
2022/10/27 12:21:46;;;;;;;4.63;1.10;;;22.30;98.40;;;;;;5118611;28;20055;-71
2022/10/27 12:24:22;;;;;;;9.52;1.42;;;22.80;98.50;;;;;;5117954;28;20109;-70
2022/10/27 12:26:53;;;;;;;;;;;23.10;97.90;;;;;;5119452;28;20071;-72
2022/10/27 12:29:20;;;;;;;4.57;1.10;;;23.00;97.80;;;;;;5118696;28;19968;-72
2022/10/27 12:32:27;;;;;;;2.60;1.20;;;23.10;97.60;;;;;;5117744;28;20063;-72
2022/10/27 12:35:02;;;;;;;4.70;1.20;;;23.00;98.30;;;;;;5107087;28;20456;-72
2022/10/27 12:37:35;;;;;;;4.25;1.20;;;23.10;97.60;;;;;;5118752;28;20067;-72
2022/10/27 12:40:29;;;;;;;4.18;1.20;;;22.50;97.60;;;;;;5118302;28;20086;-74
2022/10/27 12:43:10;;;;;;;8.13;1.17;;;22.50;97.80;;;;;;5117383;28;20065;-70
2022/10/27 12:45:46;;;;;;;5.05;1.00;;;22.10;97.70;;;;;;5118377;28;20040;-70
2022/10/27 12:48:34;;;;;;;3.05;0.90;;;21.80;98.10;;;;;;5117548;28;20036;-70
2022/10/27 12:51:30;;;;;;;5.55;1.00;;;22.10;97.90;;;;;;5101138;28;20039;-78
2022/10/27 12:54:11;;;;;;;7.32;1.27;;;21.90;98.40;;;;;;5118236;28;20332;-75
2022/10/27 12:57:15;;;;;;;5.10;1.40;;;21.90;98.60;;;;;;5117767;28;20044;-72
2022/10/27 13:00:06;;;;;;;3.83;1.02;;;21.60;98.40;;;;;;5104579;28;20079;-74
2022/10/27 13:02:42;;;;;;;7.55;1.20;;;21.20;98.70;;;;;;5116598;28;20410;-74
2022/10/27 13:05:17;;;;;;;4.47;1.30;;;21.10;98.70;;;;;;5118205;28;20032;-74
2022/10/27 13:08:14;;;;;;;5.85;1.35;;;20.80;98.90;;;;;;5118202;28;20071;-74
2022/10/27 13:10:54;;;;;;;;;;;21.00;99.30;;;;;;5117456;28;20071;-69
2022/10/27 13:13:38;;;;;;;4.63;1.25;;;21.30;99.00;;;;;;5117700;28;19968;-71
2022/10/27 13:16:19;;;;;;;7.05;1.60;;;21.80;98.70;;;;;;5117553;28;20079;-71
2022/10/27 13:19:24;;;;;;;6.47;1.10;;;22.40;98.70;;;;;;5118134;28;20051;-70
2022/10/27 13:22:15;;;;;;;3.58;1.35;;;22.80;98.10;;;;;;5116678;28;20063;-70
2022/10/27 13:25:10;;;;;;;8.75;1.23;;;22.70;98.00;;;;;;5117573;28;20044;-70
2022/10/27 13:27:58;;;;;;;6.63;1.20;;;22.60;98.30;;;;;;5099029;28;20142;-70
2022/10/27 13:30:28;;;;;;;7.13;1.40;;;22.40;98.50;;;;;;5117046;28;20036;-70